sensor_id;sensor_type;location;lat;lon;timestamp;pressure;altitude;pressure_sealevel;temperature;humidity
43770;BME280;6597;52.218;9.882;2023-02-20T00:01:56;101509.09;;;5.93;100.00
43770;BME280;6597;52.218;9.882;2023-02-20T00:04:24;101497.78;;;5.98;100.00
43770;BME280;6597;52.218;9.882;2023-02-20T00:06:51;101507.34;;;5.99;100.00
43770;BME280;6597;52.218;9.882;2023-02-20T00:09:17;101514.28;;;6.00;100.00
43770;BME280;6597;52.218;9.882;2023-02-20T00:11:44;101514.25;;;6.03;100.00
43770;BME280;6597;52.218;9.882;2023-02-20T00:14:11;101506.41;;;6.07;100.00
43770;BME280;6597;52.218;9.882;2023-02-20T00:16:38;101503.78;;;6.10;100.00
43770;BME280;6597;52.218;9.882;2023-02-20T00:19:06;101505.50;;;6.14;100.00
43770;BME280;6597;52.218;9.882;2023-02-20T00:21:33;101500.28;;;6.16;100.00
43770;BME280;6597;52.218;9.882;2023-02-20T00:23:59;101493.34;;;6.16;100.00
43770;BME280;6597;52.218;9.882;2023-02-20T00:26:26;101488.13;;;6.16;100.00
43770;BME280;6597;52.218;9.882;2023-02-20T00:28:52;101495.09;;;6.19;100.00
43770;BME280;6597;52.218;9.882;2023-02-20T00:31:19;101500.28;;;6.22;100.00
43770;BME280;6597;52.218;9.882;2023-02-20T00:33:46;101488.13;;;6.22;100.00
43770;BME280;6597;52.218;9.882;2023-02-20T00:36:17;101490.72;;;6.21;100.00
43770;BME280;6597;52.218;9.882;2023-02-20T00:38:45;101474.22;;;6.19;99.29
43770;BME280;6597;52.218;9.882;2023-02-20T00:41:12;101480.25;;;6.27;99.27
43770;BME280;6597;52.218;9.882;2023-02-20T00:43:40;101475.91;;;6.26;99.14
43770;BME280;6597;52.218;9.882;2023-02-20T00:46:09;101478.53;;;6.26;99.36
43770;BME280;6597;52.218;9.882;2023-02-20T00:48:36;101480.25;;;6.27;99.42
43770;BME280;6597;52.218;9.882;2023-02-20T00:51:23;101468.13;;;6.23;99.73
43770;BME280;6597;52.218;9.882;2023-02-20T00:53:49;101462.06;;;6.21;99.91
43770;BME280;6597;52.218;9.882;2023-02-20T00:56:16;101455.09;;;6.23;99.60
43770;BME280;6597;52.218;9.882;2023-02-20T00:58:43;101448.97;;;6.26;99.27
43770;BME280;6597;52.218;9.882;2023-02-20T01:01:09;101462.03;;;6.24;99.20
43770;BME280;6597;52.218;9.882;2023-02-20T01:03:37;101465.50;;;6.26;99.13
43770;BME280;6597;52.218;9.882;2023-02-20T01:06:04;101462.03;;;6.22;98.70
43770;BME280;6597;52.218;9.882;2023-02-20T01:08:32;101453.34;;;6.25;97.08
43770;BME280;6597;52.218;9.882;2023-02-20T01:11:02;101461.97;;;6.32;96.15
43770;BME280;6597;52.218;9.882;2023-02-20T01:13:28;101455.00;;;6.34;95.69
43770;BME280;6597;52.218;9.882;2023-02-20T01:15:55;101453.28;;;6.31;95.48
43770;BME280;6597;52.218;9.882;2023-02-20T01:18:21;101445.47;;;6.30;95.22
43770;BME280;6597;52.218;9.882;2023-02-20T01:20:50;101451.56;;;6.30;95.41
43770;BME280;6597;52.218;9.882;2023-02-20T01:23:20;101449.81;;;6.29;95.87
43770;BME280;6597;52.218;9.882;2023-02-20T01:25:48;101454.16;;;6.30;95.58
43770;BME280;6597;52.218;9.882;2023-02-20T01:28:15;101447.22;;;6.28;96.02
43770;BME280;6597;52.218;9.882;2023-02-20T01:30:42;101444.59;;;6.29;96.11
43770;BME280;6597;52.218;9.882;2023-02-20T01:33:08;101443.72;;;6.30;96.06
43770;BME280;6597;52.218;9.882;2023-02-20T01:35:35;101427.25;;;6.28;96.28
43770;BME280;6597;52.218;9.882;2023-02-20T01:38:02;101414.19;;;6.28;96.25
43770;BME280;6597;52.218;9.882;2023-02-20T01:40:32;101406.38;;;6.28;96.01
43770;BME280;6597;52.218;9.882;2023-02-20T01:43:02;101389.03;;;6.22;95.20
43770;BME280;6597;52.218;9.882;2023-02-20T01:45:33;101378.63;;;6.21;94.58
43770;BME280;6597;52.218;9.882;2023-02-20T01:48:00;101389.06;;;6.21;94.44
43770;BME280;6597;52.218;9.882;2023-02-20T01:50:29;101376.91;;;6.20;94.67
43770;BME280;6597;52.218;9.882;2023-02-20T01:53:00;101374.28;;;6.15;94.58
43770;BME280;6597;52.218;9.882;2023-02-20T01:55:30;101380.38;;;6.16;94.46
43770;BME280;6597;52.218;9.882;2023-02-20T01:58:02;101376.88;;;6.17;94.44
43770;BME280;6597;52.218;9.882;2023-02-20T02:00:31;101375.16;;;6.19;94.04
43770;BME280;6597;52.218;9.882;2023-02-20T02:02:59;101375.16;;;6.19;94.40
43770;BME280;6597;52.218;9.882;2023-02-20T02:05:28;101371.72;;;6.12;95.13
43770;BME280;6597;52.218;9.882;2023-02-20T02:07:58;101349.16;;;6.10;95.22
43770;BME280;6597;52.218;9.882;2023-02-20T02:10:29;101356.09;;;6.08;95.49
43770;BME280;6597;52.218;9.882;2023-02-20T02:12:57;101345.72;;;6.05;95.65
43770;BME280;6597;52.218;9.882;2023-02-20T02:15:26;101339.69;;;5.97;96.78
43770;BME280;6597;52.218;9.882;2023-02-20T02:18:07;101324.09;;;5.86;97.66
43770;BME280;6597;52.218;9.882;2023-02-20T02:21:04;101322.38;;;5.82;97.77
43770;BME280;6597;52.218;9.882;2023-02-20T02:27:01;101331.97;;;5.75;98.58
43770;BME280;6597;52.218;9.882;2023-02-20T02:30:04;101314.63;;;5.71;98.68
43770;BME280;6597;52.218;9.882;2023-02-20T02:33:00;101325.94;;;5.69;98.75
43770;BME280;6597;52.218;9.882;2023-02-20T02:38:39;101319.94;;;5.59;100.00
43770;BME280;6597;52.218;9.882;2023-02-20T02:41:16;101315.63;;;5.53;100.00
43770;BME280;6597;52.218;9.882;2023-02-20T02:43:49;101308.69;;;5.48;100.00
43770;BME280;6597;52.218;9.882;2023-02-20T02:46:26;101287.84;;;5.46;100.00
43770;BME280;6597;52.218;9.882;2023-02-20T02:48:59;101282.66;;;5.43;100.00
43770;BME280;6597;52.218;9.882;2023-02-20T02:51:33;101275.75;;;5.38;100.00
43770;BME280;6597;52.218;9.882;2023-02-20T02:54:09;101294.00;;;5.35;100.00
43770;BME280;6597;52.218;9.882;2023-02-20T02:56:39;101301.81;;;5.35;100.00
43770;BME280;6597;52.218;9.882;2023-02-20T02:59:09;101270.59;;;5.35;100.00
43770;BME280;6597;52.218;9.882;2023-02-20T03:01:41;101281.88;;;5.34;100.00
43770;BME280;6597;52.218;9.882;2023-02-20T03:04:11;101280.06;;;5.42;100.00
43770;BME280;6597;52.218;9.882;2023-02-20T03:06:41;101276.63;;;5.40;100.00
43770;BME280;6597;52.218;9.882;2023-02-20T03:09:12;101266.19;;;5.44;100.00
43770;BME280;6597;52.218;9.882;2023-02-20T03:11:41;101265.25;;;5.51;100.00
43770;BME280;6597;52.218;9.882;2023-02-20T03:14:11;101266.06;;;5.66;100.00
43770;BME280;6597;52.218;9.882;2023-02-20T03:17:00;101252.97;;;5.72;100.00
43770;BME280;6597;52.218;9.882;2023-02-20T03:19:37;101253.84;;;5.72;99.80
43770;BME280;6597;52.218;9.882;2023-02-20T03:22:12;101264.19;;;5.83;99.56
43770;BME280;6597;52.218;9.882;2023-02-20T03:24:42;101257.22;;;5.85;99.49
43770;BME280;6597;52.218;9.882;2023-02-20T03:27:28;101258.09;;;5.87;98.64
43770;BME280;6597;52.218;9.882;2023-02-20T03:30:07;101257.22;;;5.91;98.80
43770;BME280;6597;52.218;9.882;2023-02-20T03:32:37;101252.88;;;5.93;99.01
43770;BME280;6597;52.218;9.882;2023-02-20T03:35:24;101258.09;;;5.91;98.69
43770;BME280;6597;52.218;9.882;2023-02-20T03:38:12;101257.22;;;5.92;98.65
43770;BME280;6597;52.218;9.882;2023-02-20T03:40:58;101268.47;;;5.98;98.68
43770;BME280;6597;52.218;9.882;2023-02-20T03:43:46;101238.06;;;5.97;98.73
43770;BME280;6597;52.218;9.882;2023-02-20T03:46:16;101236.34;;;5.96;98.64
43770;BME280;6597;52.218;9.882;2023-02-20T03:48:47;101231.97;;;5.99;98.24
43770;BME280;6597;52.218;9.882;2023-02-20T03:51:17;101218.03;;;6.02;97.98
43770;BME280;6597;52.218;9.882;2023-02-20T03:54:01;101211.00;;;6.08;97.34
43770;BME280;6597;52.218;9.882;2023-02-20T03:56:32;101217.91;;;6.14;97.36
43770;BME280;6597;52.218;9.882;2023-02-20T03:59:02;101222.22;;;6.19;96.67
43770;BME280;6597;52.218;9.882;2023-02-20T04:01:34;101218.66;;;6.28;96.26
43770;BME280;6597;52.218;9.882;2023-02-20T04:04:04;101218.66;;;6.28;96.53
43770;BME280;6597;52.218;9.882;2023-02-20T04:06:33;101218.63;;;6.31;95.90
43770;BME280;6597;52.218;9.882;2023-02-20T04:09:03;101213.38;;;6.33;95.64
43770;BME280;6597;52.218;9.882;2023-02-20T04:11:37;101203.81;;;6.35;95.80
43770;BME280;6597;52.218;9.882;2023-02-20T04:14:05;101195.97;;;6.36;95.29
43770;BME280;6597;52.218;9.882;2023-02-20T04:16:36;101194.22;;;6.37;95.55
43770;BME280;6597;52.218;9.882;2023-02-20T04:19:06;101201.13;;;6.41;95.47
43770;BME280;6597;52.218;9.882;2023-02-20T04:21:37;101201.94;;;6.46;95.66
43770;BME280;6597;52.218;9.882;2023-02-20T04:24:08;101194.94;;;6.49;95.67
43770;BME280;6597;52.218;9.882;2023-02-20T04:26:38;101181.03;;;6.49;95.54
43770;BME280;6597;52.218;9.882;2023-02-20T04:29:05;101179.31;;;6.51;95.70
43770;BME280;6597;52.218;9.882;2023-02-20T04:31:32;101184.47;;;6.54;95.46
43770;BME280;6597;52.218;9.882;2023-02-20T04:33:59;101174.84;;;6.61;95.26
43770;BME280;6597;52.218;9.882;2023-02-20T04:36:26;101161.78;;;6.62;95.19
43770;BME280;6597;52.218;9.882;2023-02-20T04:38:55;101167.84;;;6.64;94.83
43770;BME280;6597;52.218;9.882;2023-02-20T04:41:25;101144.34;;;6.64;94.56
43770;BME280;6597;52.218;9.882;2023-02-20T04:43:53;101134.00;;;6.58;94.11
43770;BME280;6597;52.218;9.882;2023-02-20T04:46:44;101126.28;;;6.50;94.45
43770;BME280;6597;52.218;9.882;2023-02-20T04:49:12;101109.81;;;6.45;94.99
43770;BME280;6597;52.218;9.882;2023-02-20T04:51:39;101107.34;;;6.35;95.70
43770;BME280;6597;52.218;9.882;2023-02-20T04:54:05;101109.13;;;6.31;96.13
43770;BME280;6597;52.218;9.882;2023-02-20T04:56:32;101105.75;;;6.23;96.86
43770;BME280;6597;52.218;9.882;2023-02-20T04:59:01;101116.13;;;6.26;96.74
43770;BME280;6597;52.218;9.882;2023-02-20T05:01:27;101118.72;;;6.28;96.79
43770;BME280;6597;52.218;9.882;2023-02-20T05:03:54;101108.25;;;6.31;96.96
43770;BME280;6597;52.218;9.882;2023-02-20T05:06:20;101107.34;;;6.33;96.47
43770;BME280;6597;52.218;9.882;2023-02-20T05:08:47;101102.97;;;6.37;96.87
43770;BME280;6597;52.218;9.882;2023-02-20T05:11:13;101096.88;;;6.38;96.66
43770;BME280;6597;52.218;9.882;2023-02-20T05:13:40;101109.00;;;6.40;96.68
43770;BME280;6597;52.218;9.882;2023-02-20T05:16:08;101112.50;;;6.38;96.74
43770;BME280;6597;52.218;9.882;2023-02-20T05:18:35;101115.03;;;6.44;95.87
43770;BME280;6597;52.218;9.882;2023-02-20T05:21:01;101126.28;;;6.49;95.58
43770;BME280;6597;52.218;9.882;2023-02-20T05:23:45;101108.91;;;6.48;95.68
43770;BME280;6597;52.218;9.882;2023-02-20T05:26:16;101110.56;;;6.55;95.19
43770;BME280;6597;52.218;9.882;2023-02-20T05:28:43;101113.13;;;6.60;95.09
43770;BME280;6597;52.218;9.882;2023-02-20T05:31:11;101114.84;;;6.61;95.06
43770;BME280;6597;52.218;9.882;2023-02-20T05:33:38;101109.63;;;6.61;95.56
43770;BME280;6597;52.218;9.882;2023-02-20T05:36:05;101112.22;;;6.61;95.35
43770;BME280;6597;52.218;9.882;2023-02-20T05:38:32;101109.59;;;6.62;95.08
43770;BME280;6597;52.218;9.882;2023-02-20T05:40:59;101097.41;;;6.63;95.04
43770;BME280;6597;52.218;9.882;2023-02-20T05:43:25;101101.78;;;6.62;95.18
43770;BME280;6597;52.218;9.882;2023-02-20T05:45:52;101096.69;;;6.53;95.60
43770;BME280;6597;52.218;9.882;2023-02-20T05:48:19;101089.69;;;6.55;95.23
43770;BME280;6597;52.218;9.882;2023-02-20T05:50:46;101098.28;;;6.63;94.74
43770;BME280;6597;52.218;9.882;2023-02-20T05:53:17;101089.59;;;6.63;94.71
43770;BME280;6597;52.218;9.882;2023-02-20T05:55:43;101077.38;;;6.65;94.66
43770;BME280;6597;52.218;9.882;2023-02-20T05:58:10;101078.31;;;6.61;95.08
43770;BME280;6597;52.218;9.882;2023-02-20T06:00:37;101071.34;;;6.61;94.96
43770;BME280;6597;52.218;9.882;2023-02-20T06:03:05;101068.75;;;6.61;94.60
43770;BME280;6597;52.218;9.882;2023-02-20T06:05:33;101069.56;;;6.65;94.28
43770;BME280;6597;52.218;9.882;2023-02-20T06:08:00;101058.25;;;6.66;93.85
43770;BME280;6597;52.218;9.882;2023-02-20T06:10:27;101064.31;;;6.68;93.48
43770;BME280;6597;52.218;9.882;2023-02-20T06:12:53;101073.00;;;6.68;93.46
43770;BME280;6597;52.218;9.882;2023-02-20T06:15:20;101066.78;;;6.75;92.91
43770;BME280;6597;52.218;9.882;2023-02-20T06:17:46;101063.28;;;6.78;92.61
43770;BME280;6597;52.218;9.882;2023-02-20T06:20:13;101058.09;;;6.75;92.67
43770;BME280;6597;52.218;9.882;2023-02-20T06:22:41;101057.19;;;6.77;92.10
43770;BME280;6597;52.218;9.882;2023-02-20T06:25:08;101051.09;;;6.78;92.11
43770;BME280;6597;52.218;9.882;2023-02-20T06:27:37;101049.28;;;6.82;91.78
43770;BME280;6597;52.218;9.882;2023-02-20T06:30:04;101053.63;;;6.84;91.66
43770;BME280;6597;52.218;9.882;2023-02-20T06:32:31;101041.47;;;6.82;91.66
43770;BME280;6597;52.218;9.882;2023-02-20T06:34:57;101043.25;;;6.78;91.90
43770;BME280;6597;52.218;9.882;2023-02-20T06:37:24;101041.50;;;6.80;92.01
43770;BME280;6597;52.218;9.882;2023-02-20T06:39:52;101034.50;;;6.84;91.63
43770;BME280;6597;52.218;9.882;2023-02-20T06:42:18;101037.06;;;6.87;91.74
43770;BME280;6597;52.218;9.882;2023-02-20T06:44:45;101033.63;;;6.82;92.04
43770;BME280;6597;52.218;9.882;2023-02-20T06:47:11;101039.69;;;6.87;91.91
43770;BME280;6597;52.218;9.882;2023-02-20T06:49:38;101050.00;;;6.93;91.61
43770;BME280;6597;52.218;9.882;2023-02-20T06:52:06;101044.75;;;6.96;91.38
43770;BME280;6597;52.218;9.882;2023-02-20T06:54:33;101040.38;;;6.98;91.24
43770;BME280;6597;52.218;9.882;2023-02-20T06:57:02;101032.53;;;6.98;90.97
43770;BME280;6597;52.218;9.882;2023-02-20T06:59:28;101037.66;;;7.04;90.90
43770;BME280;6597;52.218;9.882;2023-02-20T07:01:55;101037.59;;;7.07;90.69
43770;BME280;6597;52.218;9.882;2023-02-20T07:04:23;101039.31;;;7.08;90.70
43770;BME280;6597;52.218;9.882;2023-02-20T07:06:51;101034.94;;;7.10;90.57
43770;BME280;6597;52.218;9.882;2023-02-20T07:09:17;101040.94;;;7.17;90.43
43770;BME280;6597;52.218;9.882;2023-02-20T07:11:45;101037.50;;;7.13;90.55
43770;BME280;6597;52.218;9.882;2023-02-20T07:14:14;101040.09;;;7.13;90.49
43770;BME280;6597;52.218;9.882;2023-02-20T07:16:41;101048.81;;;7.15;90.80
43770;BME280;6597;52.218;9.882;2023-02-20T07:19:07;101057.47;;;7.17;90.71
43770;BME280;6597;52.218;9.882;2023-02-20T07:21:34;101059.19;;;7.18;90.67
43770;BME280;6597;52.218;9.882;2023-02-20T07:24:00;101064.34;;;7.23;90.42
43770;BME280;6597;52.218;9.882;2023-02-20T07:26:28;101054.72;;;7.25;90.74
43770;BME280;6597;52.218;9.882;2023-02-20T07:28:56;101042.53;;;7.26;90.08
43770;BME280;6597;52.218;9.882;2023-02-20T07:31:27;101029.41;;;7.29;89.50
43770;BME280;6597;52.218;9.882;2023-02-20T07:33:53;101028.38;;;7.37;88.52
43770;BME280;6597;52.218;9.882;2023-02-20T07:36:20;101019.50;;;7.49;86.96
43770;BME280;6597;52.218;9.882;2023-02-20T07:38:52;101006.28;;;7.57;86.86
43770;BME280;6597;52.218;9.882;2023-02-20T07:41:19;101017.47;;;7.63;86.61
43770;BME280;6597;52.218;9.882;2023-02-20T07:43:45;101027.03;;;7.64;86.03
43770;BME280;6597;52.218;9.882;2023-02-20T07:46:12;101021.69;;;7.70;85.89
43770;BME280;6597;52.218;9.882;2023-02-20T07:48:39;101017.25;;;7.74;85.41
43770;BME280;6597;52.218;9.882;2023-02-20T07:51:06;101025.13;;;7.72;85.52
43770;BME280;6597;52.218;9.882;2023-02-20T07:53:32;101007.69;;;7.73;85.81
43770;BME280;6597;52.218;9.882;2023-02-20T07:55:59;101023.41;;;7.71;85.89
43770;BME280;6597;52.218;9.882;2023-02-20T07:58:26;101035.59;;;7.72;85.43
43770;BME280;6597;52.218;9.882;2023-02-20T08:00:52;101026.03;;;7.71;85.96
43770;BME280;6597;52.218;9.882;2023-02-20T08:03:19;101019.09;;;7.69;85.95
43770;BME280;6597;52.218;9.882;2023-02-20T08:05:46;101019.09;;;7.69;86.28
43770;BME280;6597;52.218;9.882;2023-02-20T08:08:13;100997.38;;;7.67;86.42
43770;BME280;6597;52.218;9.882;2023-02-20T08:10:39;101007.69;;;7.73;86.91
43770;BME280;6597;52.218;9.882;2023-02-20T08:13:06;101002.50;;;7.71;86.65
43770;BME280;6597;52.218;9.882;2023-02-20T08:15:32;101005.13;;;7.71;86.97
43770;BME280;6597;52.218;9.882;2023-02-20T08:17:59;100996.34;;;7.74;86.59
43770;BME280;6597;52.218;9.882;2023-02-20T08:20:26;101000.66;;;7.76;86.75
43770;BME280;6597;52.218;9.882;2023-02-20T08:22:53;101002.44;;;7.74;87.21
43770;BME280;6597;52.218;9.882;2023-02-20T08:25:20;101005.00;;;7.77;86.22
43770;BME280;6597;52.218;9.882;2023-02-20T08:27:48;101004.09;;;7.78;86.68
43770;BME280;6597;52.218;9.882;2023-02-20T08:30:18;100982.31;;;7.79;86.44
43770;BME280;6597;52.218;9.882;2023-02-20T08:32:47;100965.75;;;7.80;86.51
43770;BME280;6597;52.218;9.882;2023-02-20T08:35:14;100969.22;;;7.79;86.30
43770;BME280;6597;52.218;9.882;2023-02-20T08:37:41;100983.97;;;7.85;86.48
43770;BME280;6597;52.218;9.882;2023-02-20T08:40:10;100989.41;;;7.73;86.12
43770;BME280;6597;52.218;9.882;2023-02-20T08:42:36;100991.09;;;7.75;86.85
43770;BME280;6597;52.218;9.882;2023-02-20T08:45:05;100988.38;;;7.82;86.15
43770;BME280;6597;52.218;9.882;2023-02-20T08:47:32;100986.47;;;7.90;86.18
43770;BME280;6597;52.218;9.882;2023-02-20T08:50:00;100993.38;;;7.92;86.05
43770;BME280;6597;52.218;9.882;2023-02-20T08:52:26;100987.03;;;8.04;85.91
43770;BME280;6597;52.218;9.882;2023-02-20T08:54:53;100994.69;;;8.15;84.71
43770;BME280;6597;52.218;9.882;2023-02-20T08:57:25;100992.59;;;8.29;84.00
43770;BME280;6597;52.218;9.882;2023-02-20T08:59:51;100989.50;;;8.53;83.55
43770;BME280;6597;52.218;9.882;2023-02-20T09:02:19;100996.97;;;8.68;82.85
43770;BME280;6597;52.218;9.882;2023-02-20T09:04:48;100999.84;;;8.58;82.35
43770;BME280;6597;52.218;9.882;2023-02-20T09:07:15;100985.19;;;8.51;83.29
43770;BME280;6597;52.218;9.882;2023-02-20T09:09:42;101002.75;;;8.46;82.65
43770;BME280;6597;52.218;9.882;2023-02-20T09:12:09;100996.59;;;8.48;83.69
43770;BME280;6597;52.218;9.882;2023-02-20T09:14:37;100980.63;;;8.59;83.72
43770;BME280;6597;52.218;9.882;2023-02-20T09:17:04;100984.84;;;8.64;84.42
43770;BME280;6597;52.218;9.882;2023-02-20T09:19:31;100970.47;;;8.82;84.02
43770;BME280;6597;52.218;9.882;2023-02-20T09:21:57;100975.56;;;8.88;82.66
43770;BME280;6597;52.218;9.882;2023-02-20T09:24:24;100974.69;;;8.88;83.12
43770;BME280;6597;52.218;9.882;2023-02-20T09:26:56;100978.16;;;8.90;82.84
43770;BME280;6597;52.218;9.882;2023-02-20T09:29:22;100974.00;;;8.81;83.32
43770;BME280;6597;52.218;9.882;2023-02-20T09:31:50;100969.44;;;8.89;83.88
43770;BME280;6597;52.218;9.882;2023-02-20T09:34:17;100969.38;;;8.91;83.18
43770;BME280;6597;52.218;9.882;2023-02-20T09:36:43;100961.19;;;9.04;83.30
43770;BME280;6597;52.218;9.882;2023-02-20T09:39:10;100954.13;;;9.07;82.83
43770;BME280;6597;52.218;9.882;2023-02-20T09:41:46;100969.94;;;9.03;83.52
43770;BME280;6597;52.218;9.882;2023-02-20T09:44:22;100950.81;;;9.00;83.83
43770;BME280;6597;52.218;9.882;2023-02-20T09:46:54;100956.84;;;9.03;83.54
43770;BME280;6597;52.218;9.882;2023-02-20T09:49:26;100946.31;;;9.05;83.46
43770;BME280;6597;52.218;9.882;2023-02-20T09:52:00;100943.66;;;9.07;84.01
43770;BME280;6597;52.218;9.882;2023-02-20T09:54:31;100954.50;;;8.93;84.68
43770;BME280;6597;52.218;9.882;2023-02-20T09:57:00;100932.97;;;8.82;84.52
43770;BME280;6597;52.218;9.882;2023-02-20T09:59:32;100922.47;;;8.83;85.64
43770;BME280;6597;52.218;9.882;2023-02-20T10:02:07;100926.69;;;8.89;85.21
43770;BME280;6597;52.218;9.882;2023-02-20T10:04:39;100925.66;;;8.94;85.49
43770;BME280;6597;52.218;9.882;2023-02-20T10:07:15;100928.59;;;8.82;85.58
43770;BME280;6597;52.218;9.882;2023-02-20T10:09:44;100929.03;;;8.64;86.27
43770;BME280;6597;52.218;9.882;2023-02-20T10:12:17;100927.13;;;8.70;86.58
43770;BME280;6597;52.218;9.882;2023-02-20T10:15:07;100930.28;;;8.49;87.04
43770;BME280;6597;52.218;9.882;2023-02-20T10:17:46;100933.09;;;8.40;88.00
43770;BME280;6597;52.218;9.882;2023-02-20T10:20:19;100935.00;;;8.33;88.81
43770;BME280;6597;52.218;9.882;2023-02-20T10:22:52;100928.00;;;8.32;89.75
43770;BME280;6597;52.218;9.882;2023-02-20T10:25:26;100938.59;;;8.28;89.62
43770;BME280;6597;52.218;9.882;2023-02-20T10:27:59;100921.97;;;8.30;91.05
43770;BME280;6597;52.218;9.882;2023-02-20T10:30:31;100925.22;;;8.41;90.30
43770;BME280;6597;52.218;9.882;2023-02-20T10:33:09;100923.25;;;8.51;91.04
43770;BME280;6597;52.218;9.882;2023-02-20T10:35:43;100921.22;;;8.62;90.22
43770;BME280;6597;52.218;9.882;2023-02-20T10:38:15;100915.22;;;8.59;90.11
43770;BME280;6597;52.218;9.882;2023-02-20T10:40:47;100927.44;;;8.58;90.04
43770;BME280;6597;52.218;9.882;2023-02-20T10:43:19;100932.78;;;8.54;90.40
43770;BME280;6597;52.218;9.882;2023-02-20T10:45:51;100927.56;;;8.54;90.50
43770;BME280;6597;52.218;9.882;2023-02-20T10:48:22;100929.41;;;8.49;90.31
43770;BME280;6597;52.218;9.882;2023-02-20T10:50:53;100933.88;;;8.43;91.24
43770;BME280;6597;52.218;9.882;2023-02-20T10:53:28;100938.13;;;8.49;91.94
43770;BME280;6597;52.218;9.882;2023-02-20T10:56:00;100945.31;;;8.39;90.71
43770;BME280;6597;52.218;9.882;2023-02-20T10:58:32;100927.97;;;8.35;91.01
43770;BME280;6597;52.218;9.882;2023-02-20T11:01:04;100939.41;;;8.30;92.59
43770;BME280;6597;52.218;9.882;2023-02-20T11:03:39;100929.75;;;8.33;92.78
43770;BME280;6597;52.218;9.882;2023-02-20T11:06:12;100942.88;;;8.30;92.71
43770;BME280;6597;52.218;9.882;2023-02-20T11:08:40;100935.00;;;8.33;92.92
43770;BME280;6597;52.218;9.882;2023-02-20T11:11:19;100914.16;;;8.29;93.63
43770;BME280;6597;52.218;9.882;2023-02-20T11:13:46;100914.00;;;8.36;93.72
43770;BME280;6597;52.218;9.882;2023-02-20T11:16:20;100930.75;;;8.28;92.94
43770;BME280;6597;52.218;9.882;2023-02-20T11:18:52;100935.97;;;8.28;92.78
43770;BME280;6597;52.218;9.882;2023-02-20T11:21:39;100929.75;;;8.33;93.21
43770;BME280;6597;52.218;9.882;2023-02-20T11:24:28;100937.59;;;8.33;93.24
43770;BME280;6597;52.218;9.882;2023-02-20T11:26:58;100941.94;;;8.34;92.89
43770;BME280;6597;52.218;9.882;2023-02-20T11:29:33;100940.19;;;8.35;93.53
43770;BME280;6597;52.218;9.882;2023-02-20T11:32:21;100949.06;;;8.26;94.31
43770;BME280;6597;52.218;9.882;2023-02-20T11:35:01;100949.03;;;8.28;94.06
43770;BME280;6597;52.218;9.882;2023-02-20T11:37:28;100972.47;;;8.32;94.28
43770;BME280;6597;52.218;9.882;2023-02-20T11:39:56;100959.66;;;8.22;93.74
43770;BME280;6597;52.218;9.882;2023-02-20T11:42:31;100963.34;;;8.13;94.27
43770;BME280;6597;52.218;9.882;2023-02-20T11:45:11;100945.03;;;8.11;95.06
43770;BME280;6597;52.218;9.882;2023-02-20T11:47:38;100945.72;;;8.21;95.03
43770;BME280;6597;52.218;9.882;2023-02-20T11:50:25;100947.59;;;8.15;94.72
43770;BME280;6597;52.218;9.882;2023-02-20T11:53:04;100937.22;;;8.10;95.74
43770;BME280;6597;52.218;9.882;2023-02-20T11:55:32;100933.59;;;8.17;95.24
43770;BME280;6597;52.218;9.882;2023-02-20T11:57:59;100928.44;;;8.14;95.50
43770;BME280;6597;52.218;9.882;2023-02-20T12:00:27;100913.69;;;8.10;95.70
43770;BME280;6597;52.218;9.882;2023-02-20T12:03:10;100913.72;;;8.08;95.78
43770;BME280;6597;52.218;9.882;2023-02-20T12:05:40;100912.88;;;8.08;96.09
43770;BME280;6597;52.218;9.882;2023-02-20T12:08:27;100903.34;;;8.05;96.72
43770;BME280;6597;52.218;9.882;2023-02-20T12:10:59;100889.44;;;8.03;96.99
43770;BME280;6597;52.218;9.882;2023-02-20T12:13:27;100878.16;;;8.01;96.59
43770;BME280;6597;52.218;9.882;2023-02-20T12:15:58;100894.75;;;8.00;96.81
43770;BME280;6597;52.218;9.882;2023-02-20T12:18:38;100898.97;;;8.06;97.20
43770;BME280;6597;52.218;9.882;2023-02-20T12:21:15;100893.88;;;8.00;97.61
43770;BME280;6597;52.218;9.882;2023-02-20T12:23:53;100893.16;;;7.93;98.33
43770;BME280;6597;52.218;9.882;2023-02-20T12:26:31;100909.72;;;7.94;98.34
43770;BME280;6597;52.218;9.882;2023-02-20T12:29:10;100911.44;;;7.95;97.48
43770;BME280;6597;52.218;9.882;2023-02-20T12:31:50;100907.94;;;7.94;99.09
43770;BME280;6597;52.218;9.882;2023-02-20T12:34:35;100902.75;;;7.93;98.80
43770;BME280;6597;52.218;9.882;2023-02-20T12:37:12;100894.09;;;7.91;98.50
43770;BME280;6597;52.218;9.882;2023-02-20T12:39:48;100905.31;;;7.96;98.84
43770;BME280;6597;52.218;9.882;2023-02-20T12:42:25;100925.34;;;7.95;99.05
43770;BME280;6597;52.218;9.882;2023-02-20T12:45:02;100913.31;;;7.88;99.15
43770;BME280;6597;52.218;9.882;2023-02-20T12:47:36;100920.03;;;8.00;99.16
43770;BME280;6597;52.218;9.882;2023-02-20T12:50:16;100910.47;;;7.99;99.55
43770;BME280;6597;52.218;9.882;2023-02-20T12:53:00;100907.03;;;7.97;99.27
43770;BME280;6597;52.218;9.882;2023-02-20T12:55:34;100897.47;;;7.96;100.00
43770;BME280;6597;52.218;9.882;2023-02-20T12:58:15;100900.91;;;7.98;100.00
43770;BME280;6597;52.218;9.882;2023-02-20T13:00:52;100886.16;;;7.95;100.00
43770;BME280;6597;52.218;9.882;2023-02-20T13:03:23;100871.28;;;7.97;100.00
43770;BME280;6597;52.218;9.882;2023-02-20T13:05:50;100881.66;;;8.00;100.00
43770;BME280;6597;52.218;9.882;2023-02-20T13:08:22;100894.81;;;7.97;100.00
43770;BME280;6597;52.218;9.882;2023-02-20T13:10:55;100880.91;;;7.95;100.00
43770;BME280;6597;52.218;9.882;2023-02-20T13:13:23;100867.81;;;7.97;100.00
43770;BME280;6597;52.218;9.882;2023-02-20T13:15:57;100892.41;;;7.88;100.00
43770;BME280;6597;52.218;9.882;2023-02-20T13:18:35;100881.00;;;7.92;100.00
43770;BME280;6597;52.218;9.882;2023-02-20T13:21:08;100886.31;;;7.88;100.00
43770;BME280;6597;52.218;9.882;2023-02-20T13:23:37;100879.44;;;7.84;100.00
43770;BME280;6597;52.218;9.882;2023-02-20T13:26:45;100883.84;;;7.82;100.00
43770;BME280;6597;52.218;9.882;2023-02-20T13:29:13;100893.44;;;7.81;100.00
43770;BME280;6597;52.218;9.882;2023-02-20T13:31:45;100889.13;;;7.78;100.00
43770;BME280;6597;52.218;9.882;2023-02-20T13:34:33;100885.44;;;7.89;100.00
43770;BME280;6597;52.218;9.882;2023-02-20T13:37:00;100882.88;;;7.86;100.00